General Aviation Weather

Text Reports

Enter one or more of the following location identifiers separated by a space:

Zip Code, Four-Character ICAO or Three-Character IATA airport codes.

METAR - Aviation Routine Weather Report
KCCA - Clinton, Arkansas
Updated at 2:55 AM GMT on December 18, 2014 (8:55 PM CST):
METAR KCCA 180255Z AUTO 00000KT 4SM -RA FEW028 OVC040 03/01 A3031 RMK AO2 P0006
TAF - Terminal Area Forecast
KCCA - Clinton, Arkansas
Updated at 2:55 AM GMT on December 18, 2014 (8:55 PM CST):
No TAF is currently available for this location.
Decoded:
No decoded TAF is available.
PIREP - Pilot Weather Report
KCCA - Clinton, Arkansas
Updated at 2:55 AM GMT on December 18, 2014 (8:55 PM CST):
No PIREP is currently available for this location.
AIRMET - Airmens Meteorological Information
KCCA - Clinton, Arkansas
Updated at 2:55 AM GMT on December 18, 2014 (8:55 PM CST):
No AIRMET is currently available for this location.
SIGMET - Significant Meteorological Information
KCCA - Clinton, Arkansas
Updated at 2:55 AM GMT on December 18, 2014 (8:55 PM CST):
No SIGMET is currently available for this location.
NOTAM - Notice to Airmen
KCCA - Clinton, Arkansas
Updated at 2:55 AM GMT on December 18, 2014 (8:55 PM CST):
No NOTAM is currently available for this location.
Forecast Area
KCCA - Clinton, Arkansas
Updated at 2:55 AM GMT on December 18, 2014 (8:55 PM CST):
No NOTAM is currently available for this location.
Aviation Weather Maps